sensor_id;sensor_type;location;lat;lon;timestamp;temperature;humidity
48376;DHT22;34178;50.904;11.560;2023-06-14T00:01:24;13.00;99.90
48376;DHT22;34178;50.904;11.560;2023-06-14T00:03:50;13.00;99.90
48376;DHT22;34178;50.904;11.560;2023-06-14T00:06:16;12.90;99.90
48376;DHT22;34178;50.904;11.560;2023-06-14T00:08:42;12.90;99.90
48376;DHT22;34178;50.904;11.560;2023-06-14T00:11:08;12.80;99.90
48376;DHT22;34178;50.904;11.560;2023-06-14T00:13:34;12.70;99.90
48376;DHT22;34178;50.904;11.560;2023-06-14T00:16:00;12.60;99.90
48376;DHT22;34178;50.904;11.560;2023-06-14T00:18:25;12.60;99.90
48376;DHT22;34178;50.904;11.560;2023-06-14T00:20:54;12.50;99.90
48376;DHT22;34178;50.904;11.560;2023-06-14T00:23:20;12.50;99.90
48376;DHT22;34178;50.904;11.560;2023-06-14T00:25:46;12.40;99.90
48376;DHT22;34178;50.904;11.560;2023-06-14T00:28:12;12.30;99.90
48376;DHT22;34178;50.904;11.560;2023-06-14T00:30:38;12.20;99.90
48376;DHT22;34178;50.904;11.560;2023-06-14T00:33:03;12.10;99.90
48376;DHT22;34178;50.904;11.560;2023-06-14T00:35:29;12.00;99.90
48376;DHT22;34178;50.904;11.560;2023-06-14T00:37:55;12.00;99.90
48376;DHT22;34178;50.904;11.560;2023-06-14T00:40:21;11.90;99.90
48376;DHT22;34178;50.904;11.560;2023-06-14T00:42:47;11.90;99.90
48376;DHT22;34178;50.904;11.560;2023-06-14T00:45:13;11.80;99.90
48376;DHT22;34178;50.904;11.560;2023-06-14T00:47:40;11.70;99.90
48376;DHT22;34178;50.904;11.560;2023-06-14T00:50:07;11.70;99.90
48376;DHT22;34178;50.904;11.560;2023-06-14T00:52:33;11.60;99.90
48376;DHT22;34178;50.904;11.560;2023-06-14T00:55:00;11.60;99.90
48376;DHT22;34178;50.904;11.560;2023-06-14T00:57:27;11.50;99.90
48376;DHT22;34178;50.904;11.560;2023-06-14T00:59:53;11.40;99.90
48376;DHT22;34178;50.904;11.560;2023-06-14T01:02:19;11.40;99.90
48376;DHT22;34178;50.904;11.560;2023-06-14T01:04:47;11.30;99.90
48376;DHT22;34178;50.904;11.560;2023-06-14T01:15:10;11.10;99.90
48376;DHT22;34178;50.904;11.560;2023-06-14T01:17:38;11.10;99.90
48376;DHT22;34178;50.904;11.560;2023-06-14T01:20:07;11.10;99.90
48376;DHT22;34178;50.904;11.560;2023-06-14T01:22:43;11.10;99.90
48376;DHT22;34178;50.904;11.560;2023-06-14T01:25:09;11.00;99.90
48376;DHT22;34178;50.904;11.560;2023-06-14T01:27:35;10.90;99.90
48376;DHT22;34178;50.904;11.560;2023-06-14T01:30:00;10.80;99.90
48376;DHT22;34178;50.904;11.560;2023-06-14T01:32:28;10.90;99.90
48376;DHT22;34178;50.904;11.560;2023-06-14T01:34:55;10.90;99.90
48376;DHT22;34178;50.904;11.560;2023-06-14T01:37:21;10.90;99.90
48376;DHT22;34178;50.904;11.560;2023-06-14T01:39:48;10.80;99.90
48376;DHT22;34178;50.904;11.560;2023-06-14T01:42:18;10.70;99.90
48376;DHT22;34178;50.904;11.560;2023-06-14T01:44:44;10.70;99.90
48376;DHT22;34178;50.904;11.560;2023-06-14T01:47:11;10.70;99.90
48376;DHT22;34178;50.904;11.560;2023-06-14T01:49:38;10.60;99.90
48376;DHT22;34178;50.904;11.560;2023-06-14T01:52:04;10.60;99.90
48376;DHT22;34178;50.904;11.560;2023-06-14T01:54:31;10.60;99.90
48376;DHT22;34178;50.904;11.560;2023-06-14T01:56:57;10.60;99.90
48376;DHT22;34178;50.904;11.560;2023-06-14T01:59:23;10.70;99.90
48376;DHT22;34178;50.904;11.560;2023-06-14T02:01:48;10.70;99.90
48376;DHT22;34178;50.904;11.560;2023-06-14T02:04:14;10.70;99.90
48376;DHT22;34178;50.904;11.560;2023-06-14T02:06:40;10.60;99.90
48376;DHT22;34178;50.904;11.560;2023-06-14T02:09:05;10.60;99.90
48376;DHT22;34178;50.904;11.560;2023-06-14T02:11:31;10.50;99.90
48376;DHT22;34178;50.904;11.560;2023-06-14T02:13:57;10.40;99.90
48376;DHT22;34178;50.904;11.560;2023-06-14T02:16:25;10.30;99.90
48376;DHT22;34178;50.904;11.560;2023-06-14T02:18:53;10.20;99.90
48376;DHT22;34178;50.904;11.560;2023-06-14T02:21:19;10.20;99.90
48376;DHT22;34178;50.904;11.560;2023-06-14T02:23:44;10.10;99.90
48376;DHT22;34178;50.904;11.560;2023-06-14T02:26:10;10.00;99.90
48376;DHT22;34178;50.904;11.560;2023-06-14T02:28:36;10.10;99.90
48376;DHT22;34178;50.904;11.560;2023-06-14T02:31:02;10.10;99.90
48376;DHT22;34178;50.904;11.560;2023-06-14T02:33:28;10.10;99.90
48376;DHT22;34178;50.904;11.560;2023-06-14T02:35:53;10.10;99.90
48376;DHT22;34178;50.904;11.560;2023-06-14T02:38:19;10.10;99.90
48376;DHT22;34178;50.904;11.560;2023-06-14T02:40:45;10.10;99.90
48376;DHT22;34178;50.904;11.560;2023-06-14T02:43:10;10.10;99.90
48376;DHT22;34178;50.904;11.560;2023-06-14T02:45:36;10.00;99.90
48376;DHT22;34178;50.904;11.560;2023-06-14T02:48:02;9.90;99.90
48376;DHT22;34178;50.904;11.560;2023-06-14T02:50:27;9.90;99.90
48376;DHT22;34178;50.904;11.560;2023-06-14T02:52:55;9.90;99.90
48376;DHT22;34178;50.904;11.560;2023-06-14T02:55:22;9.90;99.90
48376;DHT22;34178;50.904;11.560;2023-06-14T02:57:48;9.90;99.90
48376;DHT22;34178;50.904;11.560;2023-06-14T03:00:14;9.80;99.90
48376;DHT22;34178;50.904;11.560;2023-06-14T03:02:39;9.90;99.90
48376;DHT22;34178;50.904;11.560;2023-06-14T03:05:06;9.80;99.90
48376;DHT22;34178;50.904;11.560;2023-06-14T03:07:32;9.80;99.90
48376;DHT22;34178;50.904;11.560;2023-06-14T03:09:58;9.70;99.90
48376;DHT22;34178;50.904;11.560;2023-06-14T03:12:24;9.80;99.90
48376;DHT22;34178;50.904;11.560;2023-06-14T03:14:50;9.80;99.90
48376;DHT22;34178;50.904;11.560;2023-06-14T03:17:16;9.80;99.90
48376;DHT22;34178;50.904;11.560;2023-06-14T03:19:43;9.80;99.90
48376;DHT22;34178;50.904;11.560;2023-06-14T03:22:09;9.80;99.90
48376;DHT22;34178;50.904;11.560;2023-06-14T03:24:37;9.90;99.90
48376;DHT22;34178;50.904;11.560;2023-06-14T03:27:04;10.00;99.90
48376;DHT22;34178;50.904;11.560;2023-06-14T03:29:29;10.10;99.90
48376;DHT22;34178;50.904;11.560;2023-06-14T03:32:00;10.10;99.90
48376;DHT22;34178;50.904;11.560;2023-06-14T03:34:27;10.30;99.90
48376;DHT22;34178;50.904;11.560;2023-06-14T03:36:52;10.40;99.90
48376;DHT22;34178;50.904;11.560;2023-06-14T03:39:18;10.50;99.90
48376;DHT22;34178;50.904;11.560;2023-06-14T03:41:45;10.70;99.90
48376;DHT22;34178;50.904;11.560;2023-06-14T03:44:10;10.80;99.90
48376;DHT22;34178;50.904;11.560;2023-06-14T03:46:36;10.90;99.90
48376;DHT22;34178;50.904;11.560;2023-06-14T03:49:02;11.00;99.90
48376;DHT22;34178;50.904;11.560;2023-06-14T03:51:28;11.10;99.90
48376;DHT22;34178;50.904;11.560;2023-06-14T03:53:54;11.20;99.90
48376;DHT22;34178;50.904;11.560;2023-06-14T03:56:21;11.20;99.90
48376;DHT22;34178;50.904;11.560;2023-06-14T03:58:47;11.20;99.90
48376;DHT22;34178;50.904;11.560;2023-06-14T04:01:13;11.20;99.90
48376;DHT22;34178;50.904;11.560;2023-06-14T04:03:39;11.30;99.90
48376;DHT22;34178;50.904;11.560;2023-06-14T04:06:06;11.30;99.90
48376;DHT22;34178;50.904;11.560;2023-06-14T04:08:32;11.40;99.90
48376;DHT22;34178;50.904;11.560;2023-06-14T04:10:57;11.50;99.90
48376;DHT22;34178;50.904;11.560;2023-06-14T04:13:23;11.50;99.90
48376;DHT22;34178;50.904;11.560;2023-06-14T04:15:48;11.60;99.90
48376;DHT22;34178;50.904;11.560;2023-06-14T04:18:14;11.60;99.90
48376;DHT22;34178;50.904;11.560;2023-06-14T04:20:40;11.60;99.90
48376;DHT22;34178;50.904;11.560;2023-06-14T04:23:17;11.70;99.90
48376;DHT22;34178;50.904;11.560;2023-06-14T04:25:46;11.80;99.90
48376;DHT22;34178;50.904;11.560;2023-06-14T04:28:13;11.90;99.90
48376;DHT22;34178;50.904;11.560;2023-06-14T04:30:41;12.00;99.90
48376;DHT22;34178;50.904;11.560;2023-06-14T04:33:07;12.10;99.90
48376;DHT22;34178;50.904;11.560;2023-06-14T04:35:35;12.20;99.90
48376;DHT22;34178;50.904;11.560;2023-06-14T04:38:03;12.30;99.90
48376;DHT22;34178;50.904;11.560;2023-06-14T04:40:38;12.30;99.90
48376;DHT22;34178;50.904;11.560;2023-06-14T04:43:08;12.40;99.90
48376;DHT22;34178;50.904;11.560;2023-06-14T04:45:37;12.50;99.90
48376;DHT22;34178;50.904;11.560;2023-06-14T04:48:03;12.70;99.90
48376;DHT22;34178;50.904;11.560;2023-06-14T04:50:30;12.80;99.90
48376;DHT22;34178;50.904;11.560;2023-06-14T04:52:58;12.80;99.90
48376;DHT22;34178;50.904;11.560;2023-06-14T04:55:25;12.90;99.90
48376;DHT22;34178;50.904;11.560;2023-06-14T04:57:52;12.90;99.90
48376;DHT22;34178;50.904;11.560;2023-06-14T05:00:20;13.00;99.90
48376;DHT22;34178;50.904;11.560;2023-06-14T05:02:45;13.00;99.90
48376;DHT22;34178;50.904;11.560;2023-06-14T05:05:12;13.10;99.90
48376;DHT22;34178;50.904;11.560;2023-06-14T05:07:38;13.10;99.90
48376;DHT22;34178;50.904;11.560;2023-06-14T05:10:04;13.20;99.90
48376;DHT22;34178;50.904;11.560;2023-06-14T05:12:31;13.30;99.90
48376;DHT22;34178;50.904;11.560;2023-06-14T05:14:57;13.30;99.90
48376;DHT22;34178;50.904;11.560;2023-06-14T05:17:24;13.30;99.90
48376;DHT22;34178;50.904;11.560;2023-06-14T05:19:50;13.40;99.90
48376;DHT22;34178;50.904;11.560;2023-06-14T05:22:16;13.40;99.90
48376;DHT22;34178;50.904;11.560;2023-06-14T05:24:41;13.40;99.90
48376;DHT22;34178;50.904;11.560;2023-06-14T05:27:07;13.50;99.90
48376;DHT22;34178;50.904;11.560;2023-06-14T05:29:33;13.50;99.90
48376;DHT22;34178;50.904;11.560;2023-06-14T05:31:59;13.60;99.90
48376;DHT22;34178;50.904;11.560;2023-06-14T05:34:25;13.70;99.90
48376;DHT22;34178;50.904;11.560;2023-06-14T05:36:51;13.60;99.90
48376;DHT22;34178;50.904;11.560;2023-06-14T05:39:16;13.70;99.90
48376;DHT22;34178;50.904;11.560;2023-06-14T05:41:42;13.80;99.90
48376;DHT22;34178;50.904;11.560;2023-06-14T05:44:08;13.80;99.90
48376;DHT22;34178;50.904;11.560;2023-06-14T05:46:35;13.90;99.90
48376;DHT22;34178;50.904;11.560;2023-06-14T05:49:00;13.90;99.90
48376;DHT22;34178;50.904;11.560;2023-06-14T05:51:26;13.90;99.90
48376;DHT22;34178;50.904;11.560;2023-06-14T05:53:52;14.00;99.90
48376;DHT22;34178;50.904;11.560;2023-06-14T05:56:18;14.10;99.90
48376;DHT22;34178;50.904;11.560;2023-06-14T05:58:45;14.10;99.90
48376;DHT22;34178;50.904;11.560;2023-06-14T06:01:11;14.10;99.90
48376;DHT22;34178;50.904;11.560;2023-06-14T06:03:36;14.20;99.90
48376;DHT22;34178;50.904;11.560;2023-06-14T06:06:02;14.20;99.90
48376;DHT22;34178;50.904;11.560;2023-06-14T06:08:28;14.30;99.90
48376;DHT22;34178;50.904;11.560;2023-06-14T06:10:55;14.30;99.90
48376;DHT22;34178;50.904;11.560;2023-06-14T06:13:21;14.40;99.90
48376;DHT22;34178;50.904;11.560;2023-06-14T06:15:46;14.40;99.90
48376;DHT22;34178;50.904;11.560;2023-06-14T06:18:12;14.40;99.90
48376;DHT22;34178;50.904;11.560;2023-06-14T06:23:05;14.50;99.90
48376;DHT22;34178;50.904;11.560;2023-06-14T06:25:31;14.60;99.90
48376;DHT22;34178;50.904;11.560;2023-06-14T06:27:57;14.60;99.90
48376;DHT22;34178;50.904;11.560;2023-06-14T06:30:23;14.70;99.90
48376;DHT22;34178;50.904;11.560;2023-06-14T06:32:49;14.70;99.90
48376;DHT22;34178;50.904;11.560;2023-06-14T06:35:16;14.80;99.90
48376;DHT22;34178;50.904;11.560;2023-06-14T06:37:42;14.80;99.90
48376;DHT22;34178;50.904;11.560;2023-06-14T06:40:09;14.90;99.90
48376;DHT22;34178;50.904;11.560;2023-06-14T06:42:35;14.90;99.90
48376;DHT22;34178;50.904;11.560;2023-06-14T06:45:01;14.90;99.90
48376;DHT22;34178;50.904;11.560;2023-06-14T06:47:27;14.90;99.90
48376;DHT22;34178;50.904;11.560;2023-06-14T06:49:52;14.90;99.90
48376;DHT22;34178;50.904;11.560;2023-06-14T06:52:18;15.00;99.90
48376;DHT22;34178;50.904;11.560;2023-06-14T06:54:44;15.10;99.90
48376;DHT22;34178;50.904;11.560;2023-06-14T06:57:09;15.20;99.90
48376;DHT22;34178;50.904;11.560;2023-06-14T06:59:36;15.20;99.90
48376;DHT22;34178;50.904;11.560;2023-06-14T07:02:02;15.30;99.90
48376;DHT22;34178;50.904;11.560;2023-06-14T07:04:27;15.30;99.90
48376;DHT22;34178;50.904;11.560;2023-06-14T07:06:53;15.40;99.90
48376;DHT22;34178;50.904;11.560;2023-06-14T07:09:19;15.40;99.90
48376;DHT22;34178;50.904;11.560;2023-06-14T07:11:46;15.50;99.90
48376;DHT22;34178;50.904;11.560;2023-06-14T07:14:12;15.60;99.90
48376;DHT22;34178;50.904;11.560;2023-06-14T07:16:38;15.80;99.90
48376;DHT22;34178;50.904;11.560;2023-06-14T07:19:04;15.80;99.90
48376;DHT22;34178;50.904;11.560;2023-06-14T07:21:30;15.90;99.90
48376;DHT22;34178;50.904;11.560;2023-06-14T07:23:56;15.90;99.90
48376;DHT22;34178;50.904;11.560;2023-06-14T07:26:22;16.00;99.90
48376;DHT22;34178;50.904;11.560;2023-06-14T07:28:48;16.10;99.90
48376;DHT22;34178;50.904;11.560;2023-06-14T07:31:15;16.20;99.90
48376;DHT22;34178;50.904;11.560;2023-06-14T07:33:42;16.10;99.90
48376;DHT22;34178;50.904;11.560;2023-06-14T07:36:08;16.20;99.90
48376;DHT22;34178;50.904;11.560;2023-06-14T07:38:33;16.40;99.90
48376;DHT22;34178;50.904;11.560;2023-06-14T07:41:00;16.50;99.90
48376;DHT22;34178;50.904;11.560;2023-06-14T07:43:26;16.70;99.90
48376;DHT22;34178;50.904;11.560;2023-06-14T07:45:52;16.70;99.90
48376;DHT22;34178;50.904;11.560;2023-06-14T07:48:18;16.80;99.90
48376;DHT22;34178;50.904;11.560;2023-06-14T07:50:44;16.90;99.90
48376;DHT22;34178;50.904;11.560;2023-06-14T07:53:10;17.00;99.90
48376;DHT22;34178;50.904;11.560;2023-06-14T07:55:35;17.00;99.90
48376;DHT22;34178;50.904;11.560;2023-06-14T07:58:06;17.20;99.90
48376;DHT22;34178;50.904;11.560;2023-06-14T08:00:32;17.30;99.90
48376;DHT22;34178;50.904;11.560;2023-06-14T08:02:58;17.40;99.90
48376;DHT22;34178;50.904;11.560;2023-06-14T08:05:27;17.50;99.90
48376;DHT22;34178;50.904;11.560;2023-06-14T08:07:53;17.60;99.90
48376;DHT22;34178;50.904;11.560;2023-06-14T08:10:19;17.80;99.90
48376;DHT22;34178;50.904;11.560;2023-06-14T08:12:45;17.80;99.50
48376;DHT22;34178;50.904;11.560;2023-06-14T08:15:11;17.90;99.00
48376;DHT22;34178;50.904;11.560;2023-06-14T08:17:37;17.90;99.40
48376;DHT22;34178;50.904;11.560;2023-06-14T08:20:03;18.00;99.60
48376;DHT22;34178;50.904;11.560;2023-06-14T08:22:32;18.10;98.80
48376;DHT22;34178;50.904;11.560;2023-06-14T08:25:01;18.20;98.60
48376;DHT22;34178;50.904;11.560;2023-06-14T08:27:27;18.30;99.10
48376;DHT22;34178;50.904;11.560;2023-06-14T08:29:53;18.50;98.60
48376;DHT22;34178;50.904;11.560;2023-06-14T08:32:19;18.60;97.10
48376;DHT22;34178;50.904;11.560;2023-06-14T08:34:44;18.70;97.10
48376;DHT22;34178;50.904;11.560;2023-06-14T08:37:10;18.80;96.70
48376;DHT22;34178;50.904;11.560;2023-06-14T08:39:36;18.70;96.70
48376;DHT22;34178;50.904;11.560;2023-06-14T08:42:03;18.80;96.10
48376;DHT22;34178;50.904;11.560;2023-06-14T08:44:30;18.90;96.20
48376;DHT22;34178;50.904;11.560;2023-06-14T08:46:56;19.00;97.10
48376;DHT22;34178;50.904;11.560;2023-06-14T08:49:25;19.10;96.70
48376;DHT22;34178;50.904;11.560;2023-06-14T08:51:58;19.30;96.80
48376;DHT22;34178;50.904;11.560;2023-06-14T08:54:25;19.40;95.80
48376;DHT22;34178;50.904;11.560;2023-06-14T08:56:53;19.50;96.50
48376;DHT22;34178;50.904;11.560;2023-06-14T08:59:26;19.60;96.30
48376;DHT22;34178;50.904;11.560;2023-06-14T09:01:53;19.80;96.00
48376;DHT22;34178;50.904;11.560;2023-06-14T09:04:20;19.80;95.60
48376;DHT22;34178;50.904;11.560;2023-06-14T09:06:47;19.80;94.30
48376;DHT22;34178;50.904;11.560;2023-06-14T09:09:21;19.90;95.20
48376;DHT22;34178;50.904;11.560;2023-06-14T09:11:51;20.00;94.70
48376;DHT22;34178;50.904;11.560;2023-06-14T09:14:21;20.00;93.90
48376;DHT22;34178;50.904;11.560;2023-06-14T09:16:47;20.00;94.80
48376;DHT22;34178;50.904;11.560;2023-06-14T09:19:23;20.20;94.50
48376;DHT22;34178;50.904;11.560;2023-06-14T09:21:49;20.10;93.50
48376;DHT22;34178;50.904;11.560;2023-06-14T09:24:15;19.90;93.10
48376;DHT22;34178;50.904;11.560;2023-06-14T09:26:41;19.80;93.80
48376;DHT22;34178;50.904;11.560;2023-06-14T09:29:07;19.90;93.70
48376;DHT22;34178;50.904;11.560;2023-06-14T09:31:35;20.00;94.00
48376;DHT22;34178;50.904;11.560;2023-06-14T09:34:02;20.10;93.40
48376;DHT22;34178;50.904;11.560;2023-06-14T09:36:28;20.20;94.10
48376;DHT22;34178;50.904;11.560;2023-06-14T09:41:39;20.40;93.70
48376;DHT22;34178;50.904;11.560;2023-06-14T09:44:10;20.60;93.60
48376;DHT22;34178;50.904;11.560;2023-06-14T09:46:37;20.60;93.50
48376;DHT22;34178;50.904;11.560;2023-06-14T09:49:04;20.80;94.50
48376;DHT22;34178;50.904;11.560;2023-06-14T09:51:31;20.90;92.10
48376;DHT22;34178;50.904;11.560;2023-06-14T09:54:02;20.80;91.50
48376;DHT22;34178;50.904;11.560;2023-06-14T09:56:31;20.60;92.00
48376;DHT22;34178;50.904;11.560;2023-06-14T09:58:58;20.50;92.00
48376;DHT22;34178;50.904;11.560;2023-06-14T10:01:24;20.50;92.40
48376;DHT22;34178;50.904;11.560;2023-06-14T10:03:55;20.50;92.30
48376;DHT22;34178;50.904;11.560;2023-06-14T10:06:26;20.60;92.20
48376;DHT22;34178;50.904;11.560;2023-06-14T10:08:56;20.70;91.30
48376;DHT22;34178;50.904;11.560;2023-06-14T10:11:22;20.80;92.20
48376;DHT22;34178;50.904;11.560;2023-06-14T10:13:48;20.90;91.30
48376;DHT22;34178;50.904;11.560;2023-06-14T10:24:13;22.00;88.90
48376;DHT22;34178;50.904;11.560;2023-06-14T10:26:51;21.90;89.70
48376;DHT22;34178;50.904;11.560;2023-06-14T10:29:17;22.00;90.00
48376;DHT22;34178;50.904;11.560;2023-06-14T10:31:56;21.90;88.10
48376;DHT22;34178;50.904;11.560;2023-06-14T10:34:29;21.90;90.00
48376;DHT22;34178;50.904;11.560;2023-06-14T10:37:06;21.70;89.50
48376;DHT22;34178;50.904;11.560;2023-06-14T10:39:42;21.70;88.40
48376;DHT22;34178;50.904;11.560;2023-06-14T10:42:09;21.90;89.30
48376;DHT22;34178;50.904;11.560;2023-06-14T10:44:55;21.80;87.10
48376;DHT22;34178;50.904;11.560;2023-06-14T10:47:36;21.70;88.90
48376;DHT22;34178;50.904;11.560;2023-06-14T10:50:09;22.10;89.30
48376;DHT22;34178;50.904;11.560;2023-06-14T10:52:38;22.50;90.10
48376;DHT22;34178;50.904;11.560;2023-06-14T10:55:15;22.90;89.40
48376;DHT22;34178;50.904;11.560;2023-06-14T10:57:42;23.20;86.60
48376;DHT22;34178;50.904;11.560;2023-06-14T11:00:09;23.30;82.40
48376;DHT22;34178;50.904;11.560;2023-06-14T11:05:27;23.20;82.40
48376;DHT22;34178;50.904;11.560;2023-06-14T11:08:27;23.20;82.30
48376;DHT22;34178;50.904;11.560;2023-06-14T11:10:59;22.90;79.70
48376;DHT22;34178;50.904;11.560;2023-06-14T11:13:26;22.70;81.50
48376;DHT22;34178;50.904;11.560;2023-06-14T11:15:52;22.50;84.30
48376;DHT22;34178;50.904;11.560;2023-06-14T11:18:23;22.80;81.80
48376;DHT22;34178;50.904;11.560;2023-06-14T11:20:55;23.10;80.80
48376;DHT22;34178;50.904;11.560;2023-06-14T11:23:21;23.40;79.10
48376;DHT22;34178;50.904;11.560;2023-06-14T11:25:51;23.60;80.00
48376;DHT22;34178;50.904;11.560;2023-06-14T11:28:17;23.40;81.20
48376;DHT22;34178;50.904;11.560;2023-06-14T11:30:45;23.70;81.00
48376;DHT22;34178;50.904;11.560;2023-06-14T11:33:14;23.90;73.70
48376;DHT22;34178;50.904;11.560;2023-06-14T11:35:42;23.80;75.60
48376;DHT22;34178;50.904;11.560;2023-06-14T11:38:10;23.90;77.30
48376;DHT22;34178;50.904;11.560;2023-06-14T11:40:38;24.00;75.90
48376;DHT22;34178;50.904;11.560;2023-06-14T11:43:03;24.30;78.40
48376;DHT22;34178;50.904;11.560;2023-06-14T11:45:30;24.50;76.90
48376;DHT22;34178;50.904;11.560;2023-06-14T11:47:57;24.50;77.80
48376;DHT22;34178;50.904;11.560;2023-06-14T11:50:23;24.50;74.30
48376;DHT22;34178;50.904;11.560;2023-06-14T11:52:58;24.30;72.70
48376;DHT22;34178;50.904;11.560;2023-06-14T11:55:25;24.10;74.70
48376;DHT22;34178;50.904;11.560;2023-06-14T11:57:53;24.10;72.70
48376;DHT22;34178;50.904;11.560;2023-06-14T12:00:19;24.20;75.10
48376;DHT22;34178;50.904;11.560;2023-06-14T12:02:56;24.50;74.20
48376;DHT22;34178;50.904;11.560;2023-06-14T12:05:22;24.70;74.20
48376;DHT22;34178;50.904;11.560;2023-06-14T12:07:49;24.50;74.30
48376;DHT22;34178;50.904;11.560;2023-06-14T12:10:16;24.60;75.60
48376;DHT22;34178;50.904;11.560;2023-06-14T12:12:42;24.70;75.10
48376;DHT22;34178;50.904;11.560;2023-06-14T12:15:09;24.60;72.20
48376;DHT22;34178;50.904;11.560;2023-06-14T12:17:37;24.60;70.80
48376;DHT22;34178;50.904;11.560;2023-06-14T12:20:09;24.20;72.40
48376;DHT22;34178;50.904;11.560;2023-06-14T12:23:02;24.10;75.70
48376;DHT22;34178;50.904;11.560;2023-06-14T12:25:31;24.20;73.60
48376;DHT22;34178;50.904;11.560;2023-06-14T12:27:59;24.60;75.10
48376;DHT22;34178;50.904;11.560;2023-06-14T12:30:25;25.00;75.20
48376;DHT22;34178;50.904;11.560;2023-06-14T12:32:51;25.00;71.10
48376;DHT22;34178;50.904;11.560;2023-06-14T12:35:17;24.80;73.00
48376;DHT22;34178;50.904;11.560;2023-06-14T12:37:45;25.20;71.00
48376;DHT22;34178;50.904;11.560;2023-06-14T12:40:11;26.20;70.10
48376;DHT22;34178;50.904;11.560;2023-06-14T12:42:37;27.40;70.70
48376;DHT22;34178;50.904;11.560;2023-06-14T12:45:03;28.40;66.40
48376;DHT22;34178;50.904;11.560;2023-06-14T12:47:29;29.00;66.20
48376;DHT22;34178;50.904;11.560;2023-06-14T12:49:55;29.70;62.50
48376;DHT22;34178;50.904;11.560;2023-06-14T12:52:20;30.60;62.60
48376;DHT22;34178;50.904;11.560;2023-06-14T12:54:46;31.30;60.80
48376;DHT22;34178;50.904;11.560;2023-06-14T12:57:12;31.70;60.60
48376;DHT22;34178;50.904;11.560;2023-06-14T12:59:37;32.00;57.30
48376;DHT22;34178;50.904;11.560;2023-06-14T13:02:16;32.40;55.90
48376;DHT22;34178;50.904;11.560;2023-06-14T13:04:42;31.80;56.90
48376;DHT22;34178;50.904;11.560;2023-06-14T13:07:07;32.10;57.20
48376;DHT22;34178;50.904;11.560;2023-06-14T13:09:33;32.80;57.10
48376;DHT22;34178;50.904;11.560;2023-06-14T13:11:59;33.00;54.50
48376;DHT22;34178;50.904;11.560;2023-06-14T13:14:25;32.90;53.80
48376;DHT22;34178;50.904;11.560;2023-06-14T13:16:50;33.00;55.80
48376;DHT22;34178;50.904;11.560;2023-06-14T13:19:16;33.10;54.80
48376;DHT22;34178;50.904;11.560;2023-06-14T13:21:41;33.50;54.40
48376;DHT22;34178;50.904;11.560;2023-06-14T13:24:07;34.10;52.60
48376;DHT22;34178;50.904;11.560;2023-06-14T13:26:33;34.70;52.50
48376;DHT22;34178;50.904;11.560;2023-06-14T13:28:59;34.70;54.10
48376;DHT22;34178;50.904;11.560;2023-06-14T13:31:28;35.10;52.90
48376;DHT22;34178;50.904;11.560;2023-06-14T13:33:54;34.30;49.60
48376;DHT22;34178;50.904;11.560;2023-06-14T13:36:20;32.60;52.30
48376;DHT22;34178;50.904;11.560;2023-06-14T13:38:45;31.40;53.10
48376;DHT22;34178;50.904;11.560;2023-06-14T13:41:11;30.90;54.90
48376;DHT22;34178;50.904;11.560;2023-06-14T13:43:37;31.70;54.80
48376;DHT22;34178;50.904;11.560;2023-06-14T13:46:03;33.20;54.20
48376;DHT22;34178;50.904;11.560;2023-06-14T13:48:28;34.30;49.20
48376;DHT22;34178;50.904;11.560;2023-06-14T13:50:54;34.70;49.40
48376;DHT22;34178;50.904;11.560;2023-06-14T13:53:20;35.20;52.20
48376;DHT22;34178;50.904;11.560;2023-06-14T13:55:45;35.50;50.00
48376;DHT22;34178;50.904;11.560;2023-06-14T13:58:11;34.90;50.50
48376;DHT22;34178;50.904;11.560;2023-06-14T14:00:37;35.00;52.10
48376;DHT22;34178;50.904;11.560;2023-06-14T14:03:06;34.50;50.00
48376;DHT22;34178;50.904;11.560;2023-06-14T14:05:32;34.70;50.30
48376;DHT22;34178;50.904;11.560;2023-06-14T14:07:58;35.10;50.40
48376;DHT22;34178;50.904;11.560;2023-06-14T14:10:25;33.90;49.10
48376;DHT22;34178;50.904;11.560;2023-06-14T14:12:51;32.30;50.00
48376;DHT22;34178;50.904;11.560;2023-06-14T14:15:18;32.70;49.60
48376;DHT22;34178;50.904;11.560;2023-06-14T14:17:44;33.40;51.50
48376;DHT22;34178;50.904;11.560;2023-06-14T14:20:10;34.60;50.30
48376;DHT22;34178;50.904;11.560;2023-06-14T14:22:38;35.50;51.20
48376;DHT22;34178;50.904;11.560;2023-06-14T14:25:04;36.40;48.10
48376;DHT22;34178;50.904;11.560;2023-06-14T14:27:30;36.00;49.00
48376;DHT22;34178;50.904;11.560;2023-06-14T14:29:58;35.50;48.50
48376;DHT22;34178;50.904;11.560;2023-06-14T14:32:24;34.80;49.10
48376;DHT22;34178;50.904;11.560;2023-06-14T14:34:50;34.40;50.60
48376;DHT22;34178;50.904;11.560;2023-06-14T14:37:16;34.10;49.60
48376;DHT22;34178;50.904;11.560;2023-06-14T14:39:43;34.60;49.60
48376;DHT22;34178;50.904;11.560;2023-06-14T14:42:09;35.70;48.90
48376;DHT22;34178;50.904;11.560;2023-06-14T14:44:36;36.70;48.90
48376;DHT22;34178;50.904;11.560;2023-06-14T14:47:02;36.30;48.10
48376;DHT22;34178;50.904;11.560;2023-06-14T14:49:28;34.60;48.20
48376;DHT22;34178;50.904;11.560;2023-06-14T14:51:55;32.80;50.60
48376;DHT22;34178;50.904;11.560;2023-06-14T14:54:22;32.90;51.70
48376;DHT22;34178;50.904;11.560;2023-06-14T14:56:48;34.40;51.10
48376;DHT22;34178;50.904;11.560;2023-06-14T14:59:14;35.10;49.80
48376;DHT22;34178;50.904;11.560;2023-06-14T15:01:40;35.80;51.50
48376;DHT22;34178;50.904;11.560;2023-06-14T15:04:06;37.10;50.10
48376;DHT22;34178;50.904;11.560;2023-06-14T15:06:32;37.90;49.20
48376;DHT22;34178;50.904;11.560;2023-06-14T15:09:01;38.90;48.80
48376;DHT22;34178;50.904;11.560;2023-06-14T15:11:26;39.40;47.20
48376;DHT22;34178;50.904;11.560;2023-06-14T15:13:52;39.60;47.80
48376;DHT22;34178;50.904;11.560;2023-06-14T15:16:18;40.30;47.20
48376;DHT22;34178;50.904;11.560;2023-06-14T15:18:44;41.80;45.20
48376;DHT22;34178;50.904;11.560;2023-06-14T15:21:10;42.60;46.10
48376;DHT22;34178;50.904;11.560;2023-06-14T15:23:35;42.20;45.20
48376;DHT22;34178;50.904;11.560;2023-06-14T15:26:01;40.20;44.30
48376;DHT22;34178;50.904;11.560;2023-06-14T15:28:27;36.80;45.10
48376;DHT22;34178;50.904;11.560;2023-06-14T15:30:57;34.40;47.30
48376;DHT22;34178;50.904;11.560;2023-06-14T15:33:23;32.40;47.60
48376;DHT22;34178;50.904;11.560;2023-06-14T15:35:48;31.20;49.90
48376;DHT22;34178;50.904;11.560;2023-06-14T15:38:14;30.20;51.00
48376;DHT22;34178;50.904;11.560;2023-06-14T15:40:40;29.40;52.90